TimeCST,TemperatureF,Dew PointF,Humidity,Sea Level PressureIn,VisibilityMPH,Wind Direction,Wind SpeedMPH,Gust SpeedMPH,PrecipitationIn,Events,Conditions,WindDirDegrees,DateUTC
12:52 AM,26.1,17.1,69,30.29,-9999.0,South,5.8,-,N/A,,Unknown,190,2013-12-11 06:52:00
1:52 AM,25.0,17.1,72,30.30,-9999.0,SSW,6.9,-,N/A,,Unknown,200,2013-12-11 07:52:00
2:52 AM,24.1,15.1,69,30.35,-9999.0,Variable,3.5,-,N/A,,Unknown,0,2013-12-11 08:52:00
3:52 AM,25.0,17.1,72,30.34,-9999.0,WNW,4.6,-,N/A,,Unknown,290,2013-12-11 09:52:00
4:52 AM,28.0,19.0,69,30.38,-9999.0,NNW,8.1,-,N/A,,Unknown,330,2013-12-11 10:52:00
5:52 AM,28.0,19.9,72,30.43,-9999.0,North,10.4,21.9,N/A,,Unknown,350,2013-12-11 11:52:00
6:52 AM,21.9,12.9,68,30.51,-9999.0,NNW,10.4,19.6,N/A,,Unknown,340,2013-12-11 12:52:00
7:52 AM,19.9,12.0,71,30.57,-9999.0,NNW,10.4,19.6,N/A,,Unknown,340,2013-12-11 13:52:00
8:52 AM,18.0,9.0,68,30.61,-9999.0,North,10.4,19.6,N/A,,Unknown,350,2013-12-11 14:52:00
9:52 AM,19.0,9.0,65,30.66,-9999.0,NNW,9.2,19.6,N/A,,Unknown,330,2013-12-11 15:52:00
10:52 AM,19.0,7.0,59,30.68,-9999.0,North,9.2,-,N/A,,Unknown,10,2013-12-11 16:52:00
11:52 AM,18.0,3.9,54,30.69,-9999.0,North,9.2,-,N/A,,Unknown,360,2013-12-11 17:52:00
12:52 PM,19.0,1.0,46,30.68,-9999.0,North,10.4,-,N/A,,Unknown,360,2013-12-11 18:52:00
1:52 PM,19.0,1.9,47,30.68,-9999.0,Variable,5.8,-,N/A,,Unknown,0,2013-12-11 19:52:00
2:52 PM,18.0,-0.9,44,30.69,-9999.0,WNW,9.2,-,N/A,,Unknown,300,2013-12-11 20:52:00
3:52 PM,17.1,-2.0,43,30.68,-9999.0,NW,8.1,-,N/A,,Unknown,310,2013-12-11 21:52:00
4:52 PM,14.0,-2.0,49,30.70,-9999.0,NW,3.5,-,N/A,,Unknown,320,2013-12-11 22:52:00
5:52 PM,12.0,-2.0,53,30.71,-9999.0,Calm,Calm,-,N/A,,Unknown,0,2013-12-11 23:52:00
6:52 PM,8.1,-2.0,64,30.73,-9999.0,Calm,Calm,-,N/A,,Unknown,0,2013-12-12 00:52:00
7:52 PM,7.0,-2.0,67,30.73,-9999.0,Calm,Calm,-,N/A,,Unknown,0,2013-12-12 01:52:00
8:52 PM,5.0,-0.9,76,30.73,-9999.0,Calm,Calm,-,N/A,,Unknown,0,2013-12-12 02:52:00
9:52 PM,3.9,-0.9,80,30.72,-9999.0,Calm,Calm,-,N/A,,Unknown,0,2013-12-12 03:52:00
10:52 PM,3.0,-2.0,80,30.71,-9999.0,Calm,Calm,-,N/A,,Unknown,0,2013-12-12 04:52:00
11:52 PM,3.0,-2.0,80,30.69,-9999.0,South,3.5,-,N/A,,Unknown,190,2013-12-12 05:52:00